• Join FlightAware (Why Join?)
  • Login
  • US Flag 
Gobble Gobble! 
12:44AM EST


 

Airport Tracker/Info


-or-


 

Live Flight TrackerFlight Track Log ✈ N721RL ✈ 24-Aug-2013 ✈ KEGE - KPSM

Flight Track Log - Related Links

Times and Time Zones

All times are in EDT time to prevent confusion due to time zone crossing. See the N721RL flight status page for this flight to view local times or setup timezone preferences in your user account.

Time Position Orientation Groundspeed Altitude Reporting Facility
EDT Latitude Longitude Course Direction KTS MPH feet Rate Location/Type
03:15PM 39.6203 -106.9672 24° Northeast 206 237 8,400  Level Denver Center
03:16PM 39.5683 -107.0169 216° Southwest 247 284 10,600 2,160 Climbing Denver Center
03:18PM 39.6136 -107.0825 312° West 289 333 12,900 1,980 Climbing Denver Center
03:19PM 39.6997 -107.0975 352° North 329 379 14,700 2,040 Climbing Denver Center
03:20PM 40.1754 -106.3442 27° Northeast  Level FlightAware Approximate
03:20PM 39.8006 -107.0822 North 375 432 17,100  Level Denver Center
03:21PM 40.2876 -106.2785 24° Northeast  Level FlightAware Approximate
03:21PM 39.8817 -106.9933 40° Northeast 382 440 19,100  Level Denver Center
03:22PM 39.9731 -106.8633 47° Northeast 407 468 21,700 2,040 Climbing Denver Center
03:23PM 40.0422 -106.7467 52° Northeast 423 487 23,300 2,040 Climbing Denver Center
03:24PM 40.1253 -106.6050 52° Northeast 440 506 25,900 1,740 Climbing Denver Center
03:25PM 40.1922 -106.4894 53° Northeast 452 520 26,900 1,320 Climbing Denver Center
03:26PM 40.2936 -106.3211 52° Northeast 489 563 28,700 2,040 Climbing Denver Center
03:27PM 40.3758 -106.1853 52° Northeast 496 571 31,100 2,100 Climbing Denver Center
03:28PM 40.4600 -106.0353 54° Northeast 490 564 33,100 2,040 Climbing Denver Center
03:29PM 40.5233 -105.8761 62° Northeast 490 564 35,300 2,580 Climbing Denver Center
03:30PM 40.5747 -105.7150 67° East 482 555 38,400 2,100 Climbing Denver Center
03:31PM 40.6203 -105.5650 68° East 448 516 39,700 1,080 Climbing Denver Center
03:32PM 40.6678 -105.4086 68° East 456 525 40,700 1,380 Climbing Denver Center
03:33PM 40.7161 -105.2514 68° East 461 531 42,600 1,560 Climbing Denver Center
03:34PM 40.7703 -105.0694 68° East 448 516 44,000 1,020 Climbing Denver Center
03:35PM 40.8158 -104.9175 68° East 444 511 44,800 480 Climbing Denver Center
03:36PM 40.8608 -104.7653 69° East 444 511 45,000 60 Climbing Denver Center
03:37PM 40.9075 -104.6147 68° East 443 510 45,000  Level Denver Center
03:38PM 40.9633 -104.4217 69° East 459 528 45,000  Level Denver Center
03:39PM 41.0142 -104.2478 69° East 468 539 45,000  Level Denver Center
03:40PM 41.0586 -104.0942 69° East 467 537 45,000  Level Denver Center
03:41PM 41.1103 -103.9150 69° East 467 537 45,000  Level Denver Center
03:42PM 41.1542 -103.7625 69° East 465 535 45,000  Level Denver Center
03:43PM 41.2053 -103.5850 69° East 463 533 45,000  Level Denver Center
03:44PM 41.2483 -103.4325 69° East 463 533 45,000  Level Denver Center
03:45PM 41.2983 -103.2553 69° East 460 529 45,000  Level Denver Center
03:47PM 41.3394 -103.1053 70° East 454 522 45,000  Level Denver Center
03:48PM 41.3894 -102.9281 69° East 458 527 45,000  Level Denver Center
03:49PM 41.4306 -102.7758 70° East 459 528 45,000  Level Denver Center
03:50PM 41.4733 -102.6197 70° East 467 537 45,000  Level Denver Center
03:51PM 41.5253 -102.4317 70° East 470 541 45,000  Level Denver Center
03:52PM 41.5672 -102.2764 70° East 466 536 45,000  Level Denver Center
03:53PM 41.6169 -102.0964 70° East 462 532 45,000  Level Denver Center
03:54PM 41.6597 -101.9403 70° East 464 534 45,000  Level Denver Center
03:55PM 41.7014 -101.7836 70° East 467 537 45,000  Level Denver Center
03:56PM 41.7486 -101.6039 71° East 458 527 45,000  Level Denver Center
03:57PM 41.7894 -101.4500 70° East 457 526 45,000  Level Denver Center
03:58PM 41.8369 -101.2683 71° East 460 529 45,000  Level Denver Center
03:59PM 41.8758 -101.1142 71° East 457 526 45,000  Level Denver Center
04:00PM 41.9233 -100.9325 71° East 460 529 45,000  Level Denver Center
04:01PM 41.9608 -100.7794 72° East 452 520 45,000  Level Denver Center
04:02PM 41.9994 -100.6333 70° East 438 504 45,000  Level Denver Center
04:03PM 42.0422 -100.4589 72° East 440 506 45,000  Level Denver Center
04:04PM 42.0722 -100.3411 71° East 437 503 45,000  Level Minneapolis Center
04:05PM 42.1117 -100.1819 71° East 443 510 45,000  Level Minneapolis Center
04:06PM 42.1506 -100.0214 72° East 448 516 45,000  Level Minneapolis Center
04:07PM 42.1986 -99.8292 71° East 450 518 45,000  Level Minneapolis Center
04:08PM 42.2375 -99.6689 72° East 450 518 45,000  Level Minneapolis Center
04:09PM 42.2767 -99.5089 72° East 448 516 45,000  Level Minneapolis Center
04:10PM 42.3144 -99.3478 72° East 448 516 45,000  Level Minneapolis Center
04:11PM 42.3539 -99.1861 72° East 451 519 45,000  Level Minneapolis Center
04:12PM 42.3928 -99.0244 72° East 452 520 45,000  Level Minneapolis Center
04:13PM 42.4300 -98.8622 73° East 451 519 45,000  Level Minneapolis Center
04:14PM 42.4669 -98.7006 73° East 450 518 45,000  Level Minneapolis Center
04:15PM 42.4931 -98.5356 78° East 448 516 45,000  Level Minneapolis Center
04:16PM 42.5206 -98.3367 79° East 446 513 45,000  Level Minneapolis Center
04:17PM 42.5428 -98.1703 80° East 448 516 45,000  Level Minneapolis Center
04:18PM 42.5658 -98.0011 79° East 454 522 45,000  Level Minneapolis Center
04:19PM 42.5883 -97.8333 80° East 452 520 45,000  Level Minneapolis Center
04:20PM 42.6125 -97.6533 80° East 454 522 45,000  Level Minneapolis Center
04:21PM 42.6350 -97.4828 80° East 456 525 45,000  Level Minneapolis Center
04:22PM 42.6564 -97.3136 80° East 455 524 45,000  Level Minneapolis Center
04:23PM 42.6775 -97.1447 80° East 456 525 45,000  Level Minneapolis Center
04:24PM 42.6986 -96.9781 80° East 454 522 45,000  Level Minneapolis Center
04:25PM 42.7189 -96.8092 81° East 456 525 45,000  Level Minneapolis Center
04:27PM 42.7442 -96.6064 80° East 455 524 45,000  Level Minneapolis Center
04:28PM 42.7689 -96.4019 81° East 459 528 45,000  Level Minneapolis Center
04:29PM 42.7894 -96.2325 81° East 458 527 45,000  Level Minneapolis Center
04:30PM 42.8097 -96.0603 81° East 461 531 45,000  Level Minneapolis Center
04:31PM 42.8292 -95.8908 81° East 457 526 45,000  Level Minneapolis Center
04:32PM 42.8492 -95.7211 81° East 458 527 45,000  Level Minneapolis Center
04:33PM 42.8725 -95.5156 81° East 460 529 45,000  Level Minneapolis Center
04:34PM 42.8908 -95.3467 82° East 456 525 45,000  Level Minneapolis Center
04:35PM 42.9122 -95.1464 82° East 450 518 45,000  Level Minneapolis Center
04:36PM 42.9308 -94.9806 81° East 446 513 45,000  Level Minneapolis Center
04:37PM 42.9486 -94.8139 82° East 447 514 45,000  Level Minneapolis Center
04:38PM 42.9656 -94.6486 82° East 443 510 45,000  Level Minneapolis Center
04:39PM 42.9819 -94.4822 82° East 447 514 45,000  Level Minneapolis Center
04:40PM 43.0022 -94.2828 82° East 448 516 45,000  Level Minneapolis Center
04:41PM 43.0178 -94.1167 83° East 446 513 45,000  Level Minneapolis Center
04:42PM 43.0356 -93.9500 82° East 447 514 45,000  Level Minneapolis Center
04:43PM 43.0514 -93.7822 83° East 448 516 45,000  Level Minneapolis Center
04:44PM 43.0675 -93.6136 82° East 451 519 45,000  Level Minneapolis Center
04:45PM 43.0864 -93.4114 83° East 451 519 45,000  Level Minneapolis Center
04:46PM 43.0981 -93.2425 85° East 451 519 45,000  Level Minneapolis Center
04:48PM 43.1014 -93.0742 88° East 450 518 45,000  Level Minneapolis Center
04:49PM 43.1050 -92.9044 88° East 450 518 45,000  Level Minneapolis Center
04:50PM 43.1094 -92.7344 88° East 450 518 45,000  Level Minneapolis Center
04:51PM 43.1128 -92.5272 89° East 457 526 45,000  Level Minneapolis Center
04:52PM 43.1172 -92.3228 88° East 453 521 45,000  Level Minneapolis Center
04:53PM 43.1197 -92.1536 89° East 448 516 45,000  Level Minneapolis Center
04:54PM 43.1233 -91.9844 88° East 447 514 45,000  Level Minneapolis Center
04:55PM 43.1261 -91.8144 89° East 447 514 45,000  Level Minneapolis Center
04:56PM 43.1303 -91.6106 88° East 446 513 45,000  Level Minneapolis Center
04:57PM 43.1311 -91.4044 90° East 449 517 45,000  Level Minneapolis Center
04:58PM 43.1317 -91.2342 90° East 449 517 45,000  Level Minneapolis Center
04:59PM 43.1333 -91.0633 89° East 449 517 45,000  Level Minneapolis Center
05:00PM 43.1336 -90.8914 90° East 452 520 45,000  Level Minneapolis Center
05:01PM 43.1344 -90.7197 90° East 454 522 45,000  Level Minneapolis Center
05:02PM 43.1344 -90.5486 90° East 453 521 45,000  Level Minneapolis Center
05:03PM 43.1342 -90.3425 90° East 455 524 45,000  Level Minneapolis Center
05:04PM 43.1339 -90.1783 90° East 458 527 45,000  Level Minneapolis Center
05:05PM 43.1336 -90.0028 90° East 459 528 45,000  Level Minneapolis Center
05:06PM 43.1333 -89.7981 90° East 459 528 45,000  Level Minneapolis Center
05:08PM 43.1317 -89.6233 91° East 461 531 45,000  Level Chicago Center
05:09PM 43.1306 -89.4494 90° East 458 527 45,000  Level Chicago Center
05:10PM 43.1292 -89.2769 91° East 453 521 45,000  Level Chicago Center
05:11PM 43.1275 -89.0747 91° East 453 521 45,000  Level Chicago Center
05:12PM 43.1250 -88.9033 91° East 451 519 45,000  Level Chicago Center
05:13PM 43.1222 -88.7297 91° East 457 526 45,000  Level Chicago Center
05:14PM 43.1200 -88.5556 91° East 460 529 45,000  Level Chicago Center
05:15PM 43.1175 -88.3822 91° East 459 528 45,000  Level Chicago Center
05:16PM 43.1203 -88.1775 89° East 465 535 45,000  Level Chicago Center
05:17PM 43.1286 -88.0025 86° East 465 535 45,000  Level Chicago Center
05:18PM 43.1367 -87.8294 86° East 460 529 45,000  Level Chicago Center
05:19PM 43.1447 -87.6547 86° East 460 529 45,000  Level Chicago Center
05:20PM 43.1531 -87.4811 86° East 459 528 45,000  Level Chicago Center
05:21PM 43.1617 -87.2858 86° East 459 528 45,000  Level Chicago Center
05:22PM 43.1686 -87.1106 87° East 462 532 45,000  Level Chicago Center
05:23PM 43.1761 -86.9347 87° East 463 533 45,000  Level Chicago Center
05:24PM 43.1831 -86.7586 87° East 463 533 45,000  Level Chicago Center
05:25PM 43.1878 -86.5831 88° East 462 532 45,000  Level Chicago Center
05:26PM 43.1944 -86.4075 87° East 461 531 45,000  Level Chicago Center
05:27PM 43.1961 -86.2311 89° East 461 531 45,000  Level Chicago Center
05:28PM 43.1822 -86.0508 96° East 467 537 45,000  Level Chicago Center
05:29PM 43.1669 -85.8669 96° East 471 542 45,000  Level Chicago Center
05:30PM 43.1511 -85.6867 97° East 471 542 45,000  Level Chicago Center
05:31PM 43.1322 -85.4767 97° East 463 533 45,000  Level Chicago Center
05:32PM 43.1175 -85.3044 97° East 458 527 45,000  Level Chicago Center
05:33PM 43.1019 -85.1322 97° East 457 526 45,000  Level Chicago Center
05:34PM 43.0886 -84.9600 96° East 456 525 45,000  Level Chicago Center
05:35PM 43.0947 -84.7900 87° East 450 518 45,000  Level Chicago Center
05:36PM 43.1014 -84.6208 87° East 447 514 45,000  Level Chicago Center
05:37PM 43.1103 -84.4139 87° East 454 522 45,000  Level Chicago Center
05:38PM 43.1131 -84.2856 88° East 457 526 45,000  Level Cleveland Center
05:39PM 43.1206 -84.0756 87° East 460 529 45,000  Level Cleveland Center
05:40PM 43.1267 -83.9019 87° East 459 528 45,000  Level Cleveland Center
05:41PM 43.1319 -83.7253 88° East 463 533 45,000  Level Cleveland Center
05:42PM 43.1375 -83.5517 87° East 461 531 45,000  Level Cleveland Center
05:43PM 43.1436 -83.3792 87° East 456 525 45,000  Level Cleveland Center
05:45PM 43.1467 -83.2053 89° East 456 525 45,000  Level Cleveland Center
05:46PM 43.1517 -83.0333 88° East 452 520 45,000  Level Cleveland Center
05:47PM 43.1572 -82.8314 88° East 442 509 45,000  Level Cleveland Center
05:48PM 43.1606 -82.6589 88° East 451 519 45,000  Level Cleveland Center
05:49PM 43.1642 -82.4861 88° East 454 522 45,000  Level Cleveland Center
05:49PM 43.1667 -82.3803 88° East 460 529 45,000  Level Cleveland Center
05:50PM 43.1697 -82.2067 89° East 458 527 45,000  Level Cleveland Center
05:51PM 43.1725 -82.0350 89° East 454 522 45,000  Level Cleveland Center
05:52PM 43.1758 -81.8636 88° East 452 520 45,000  Level Cleveland Center
05:53PM 43.1797 -81.6586 88° East 450 518 45,000  Level Cleveland Center
05:54PM 43.1817 -81.4881 89° East 449 517 45,000  Level Cleveland Center
05:55PM 43.1836 -81.3056 89° East 451 519 45,000  Level Cleveland Center
05:56PM 43.1667 -81.1500 98° East 450 518 45,000  Level Toronto Center
05:57PM 43.1667 -80.9667 90° East 460 529 45,000  Level Toronto Center
05:58PM 43.1833 -80.7833 83° East 460 529 45,000  Level Toronto Center
05:59PM 43.1833 -80.6000 90° East 460 529 45,000  Level Toronto Center
06:00PM 43.1833 -80.4333 90° East 460 529 45,000  Level Toronto Center
06:01PM 43.1833 -80.2500 90° East 460 529 45,000  Level Toronto Center
06:02PM 43.1833 -80.0833 90° East 460 529 45,000  Level Toronto Center
06:03PM 43.1833 -79.9000 90° East 460 529 45,000  Level Toronto Center
06:04PM 43.1833 -79.7167 90° East 460 529 45,000  Level Toronto Center
06:05PM 43.1833 -79.5333 90° East 460 529 45,000  Level Toronto Center
06:06PM 43.1833 -79.3833 90° East 460 529 45,000  Level Toronto Center
06:07PM 43.1833 -79.2000 90° East 460 529 45,000  Level Toronto Center
06:08PM 43.1833 -79.0167 90° East 460 529 45,000  Level Toronto Center
06:09PM 43.1833 -78.8500 90° East 460 529 45,000  Level Toronto Center
06:10PM 43.1842 -78.7686 89° East 466 536 45,000  Level Cleveland Center
06:11PM 43.1819 -78.5919 91° East 466 536 45,000  Level Cleveland Center
06:12PM 43.1783 -78.4192 92° East 458 527 45,000  Level Cleveland Center
06:13PM 43.1764 -78.2436 91° East 459 528 45,000  Level Cleveland Center
06:14PM 43.1731 -78.0661 91° East 463 533 45,000  Level Cleveland Center
06:15PM 43.1697 -77.8922 91° East 458 527 45,000  Level Cleveland Center
06:16PM 43.1667 -77.7192 91° East 454 522 45,000  Level Cleveland Center
06:17PM 43.1631 -77.5453 92° East 455 524 45,000  Level Cleveland Center
06:18PM 43.1581 -77.3383 92° East 452 520 45,000  Level Cleveland Center
06:19PM 43.1539 -77.1647 92° East 453 521 45,000  Level Cleveland Center
06:20PM 43.1492 -76.9939 92° East 451 519 45,000  Level Cleveland Center
06:21PM 43.1497 -76.8214 90° East 453 521 45,000 -60 Level Cleveland Center
06:22PM 43.1567 -76.6600 87° East 451 519 44,900 -600 Descending Cleveland Center
06:23PM 43.1644 -76.4511 87° East 460 529 43,800 -1,020 Descending Cleveland Center
06:24PM 43.1697 -76.2803 88° East 453 521 42,900 -900 Descending Cleveland Center
06:25PM 43.1750 -76.1083 88° East 452 520 42,000 -900 Descending Cleveland Center
06:26PM 43.1667 -75.9000 93° East 450 518 41,100 -960 Descending Toronto Center
06:27PM 43.1833 -75.7167 83° East 460 529 40,200 -900 Descending Toronto Center
06:28PM 43.1667 -75.5333 97° East 470 541 39,300 -900 Descending Toronto Center
06:29PM 43.1917 -75.4158 74° East 462 532 38,400 -1,020 Descending Boston Center
06:31PM 43.1947 -75.2133 89° East 454 522 37,200 -1,380 Descending Boston Center
06:32PM 43.2003 -75.0511 87° East 438 504 35,600 -1,680 Descending Boston Center
06:33PM 43.2033 -74.8819 89° East 446 513 33,800 -1,860 Descending Boston Center
06:34PM 43.2086 -74.7064 88° East 462 532 31,900 -1,920 Descending Boston Center
06:35PM 43.2103 -74.5303 89° East 464 534 29,900 -1,440 Descending Boston Center
06:36PM 43.2128 -74.3583 89° East 457 526 29,000 -480 Descending Boston Center
06:37PM 43.2158 -74.1853 89° East 455 524 29,000  Level Boston Center
06:38PM 43.2181 -73.9764 89° East 456 525 29,000  Level Boston Center
06:39PM 43.2197 -73.8025 89° East 457 526 29,000 -660 Level Boston Center
06:40PM 43.2222 -73.6214 89° East 456 525 27,700 -1,620 Descending Boston Center
06:41PM 43.2233 -73.4519 89° East 448 516 25,700 -2,040 Descending Boston Center
06:42PM 43.2244 -73.2803 89° East 433 498 23,600 -2,040 Descending Boston Center
06:43PM 43.2253 -73.1183 90° East 425 489 21,600 -2,040 Descending Boston Center
06:44PM 43.2256 -72.9636 90° East 409 471 19,500 -1,740 Descending Boston Center
06:45PM 43.2256 -72.8144 90° East 395 455 18,100 -1,080 Descending Boston Center
06:46PM 43.2264 -72.6675 90° East 387 445 17,300 -840 Descending Boston Center
06:47PM 43.2256 -72.5219 90° East 383 441 16,400 -840 Descending Boston Center
06:48PM 43.2261 -72.3783 90° East 380 437 15,600 -840 Descending Boston Center
06:49PM 43.2250 -72.2158 90° East 372 428 14,700 -1,020 Descending Boston Center
06:50PM 43.2203 -72.0778 93° East 362 417 13,600 -660 Descending Boston Center
06:51PM 43.2147 -71.9400 93° East 364 419 13,400 -900 Descending Boston Center
06:52PM 43.2092 -71.7953 93° East 351 404 11,900 -1,380 Descending Boston Center
06:53PM 43.2042 -71.6792 93° East 307 353 10,600 -1,260 Descending Boston Center
06:54PM 43.2000 -71.6000 94° East 295 339 9,800 -1,260 Descending KA90
06:55PM 43.2000 -71.5000 90° East 289 333 8,500 -1,200 Descending KA90
06:56PM 43.2000 -71.3833 90° East 281 323 7,400 -1,200 Descending KA90
06:57PM 43.1833 -71.2833 103° East 275 316 6,200 -1,200 Descending KA90
06:58PM 43.1833 -71.1833 90° East 271 312 5,100 -960 Descending KA90
06:59PM 43.1667 -71.0833 103° East 274 315 4,300 -1,020 Descending KA90
07:00PM 43.1500 -70.9833 103° East 267 307 3,100 -1,200 Descending KA90
07:01PM 43.1333 -70.8833 103° East 236 272 2,000 -1,260 Descending KA90
07:01PM 43.1267 -70.8644 116° Southeast 218 251 1,200 -1,260 Descending Boston Center
07:02PM 43.0883 -70.8331 149° Southeast 151 174 100 4,800 Descending Boston Center
07:03PM 43.0692 -70.8086 137° Southeast 134 154 11,000 10,500 Climbing Boston Center